METAR Data
IDs: Format: Raw Decoded Include TAF

Data at: 0535 UTC 03 Jul 2022

METAR for:KCQW (Cheraw Muni, SC, US)
Text:KCQW 030515Z AUTO 23005KT 10SM CLR 24/22 A2998 RMK AO2 PWINO
Temperature: 24.0°C ( 75°F)
Dewpoint: 22.0°C ( 72°F) [RH = 89%]
Pressure (altimeter):29.98 inches Hg (1015.3 mb)
Winds:from the SW (230 degrees) at 6 MPH (5 knots; 2.6 m/s)
Visibility:10 or more sm (16+ km)
Ceiling:at least 12,000 feet AGL
Clouds:sky clear below 12,000 feet AGL
QC Flag:automated observation with no human augmentation

TAF for:KCQW (Cheraw Muni, SC, US)
Text:No data found